createdAt,value
2023-03-02T00:00:16.868Z,3.85
2023-03-02T00:03:18.447Z,2.65
2023-03-02T00:06:20.139Z,3.10
2023-03-02T00:09:21.680Z,3.15
2023-03-02T00:12:23.677Z,3.30
2023-03-02T00:15:25.258Z,3.75
2023-03-02T00:18:26.708Z,3.15
2023-03-02T00:21:28.273Z,3.33
2023-03-02T00:24:29.719Z,3.17
2023-03-02T00:27:31.258Z,3.58
2023-03-02T00:30:32.783Z,2.95
2023-03-02T00:33:34.647Z,3.20
2023-03-02T00:36:36.233Z,2.90
2023-03-02T00:39:37.748Z,3.83
2023-03-02T00:42:39.355Z,3.70
2023-03-02T00:45:41.218Z,2.97
2023-03-02T00:48:43.451Z,2.83
2023-03-02T00:51:44.916Z,2.53
2023-03-02T00:54:46.383Z,3.45
2023-03-02T00:57:54.916Z,3.38
2023-03-02T01:01:06.561Z,3.55
2023-03-02T01:04:09.675Z,3.10
2023-03-02T01:07:14.767Z,3.40
2023-03-02T01:10:17.082Z,2.65
2023-03-02T01:13:19.605Z,3.40
2023-03-02T01:16:21.240Z,2.60
2023-03-02T01:19:22.878Z,3.03
2023-03-02T01:22:24.390Z,3.25
2023-03-02T01:25:25.884Z,2.17
2023-03-02T01:28:27.707Z,3.10
2023-03-02T01:31:30.291Z,4.60
2023-03-02T01:34:32.055Z,4.10
2023-03-02T01:37:34.186Z,3.83
2023-03-02T01:40:35.716Z,4.85
2023-03-02T01:43:37.718Z,4.55
2023-03-02T01:46:39.265Z,3.20
2023-03-02T01:49:49.669Z,5.32
2023-03-02T01:52:52.729Z,6.05
2023-03-02T01:55:54.796Z,4.60
2023-03-02T01:59:05.761Z,3.95
2023-03-02T02:02:10.660Z,3.55
2023-03-02T02:05:17.513Z,4.03
2023-03-02T02:08:19.258Z,4.25
2023-03-02T02:11:20.898Z,3.65
2023-03-02T02:14:25.600Z,3.95
2023-03-02T02:17:31.185Z,4.70
2023-03-02T02:20:37.275Z,4.97
2023-03-02T02:24:11.096Z,3.70
2023-03-02T02:27:13.675Z,4.43
2023-03-02T02:30:16.806Z,4.30
2023-03-02T02:33:23.257Z,3.90
2023-03-02T02:36:34.768Z,4.35
2023-03-02T02:39:45.179Z,4.63
2023-03-02T02:45:54.999Z,4.25
2023-03-02T02:48:56.647Z,3.50
2023-03-02T02:52:00.056Z,4.32
2023-03-02T02:55:02.691Z,3.58
2023-03-02T02:58:13.632Z,4.35
2023-03-02T03:01:18.370Z,3.50
2023-03-02T03:04:28.028Z,3.60
2023-03-02T03:07:31.803Z,4.63
2023-03-02T03:10:40.234Z,3.17
2023-03-02T03:13:44.382Z,3.58
2023-03-02T03:16:48.240Z,3.13
2023-03-02T03:19:49.788Z,3.60
2023-03-02T03:22:53.432Z,3.33
2023-03-02T03:25:55.717Z,3.63
2023-03-02T03:28:57.422Z,3.50
2023-03-02T03:32:00.646Z,3.47
2023-03-02T03:35:03.798Z,3.38
2023-03-02T03:38:08.304Z,3.90
2023-03-02T03:41:09.862Z,3.70
2023-03-02T03:44:11.513Z,3.30
2023-03-02T03:47:15.774Z,3.00
2023-03-02T03:50:17.897Z,3.28
2023-03-02T03:53:19.497Z,4.13
2023-03-02T03:56:21.210Z,3.50
2023-03-02T03:59:25.412Z,2.70
2023-03-02T04:02:31.783Z,4.22
2023-03-02T04:05:34.193Z,4.57
2023-03-02T04:08:37.380Z,4.10
2023-03-02T04:11:41.080Z,4.60
2023-03-02T04:14:42.605Z,3.28
2023-03-02T04:17:44.956Z,3.40
2023-03-02T04:20:47.854Z,3.42
2023-03-02T04:23:49.468Z,3.40
2023-03-02T04:26:51.817Z,2.97
2023-03-02T04:29:54.004Z,3.25
2023-03-02T04:32:57.513Z,3.20
2023-03-02T04:36:01.077Z,2.72
2023-03-02T04:39:04.482Z,3.03
2023-03-02T04:42:06.049Z,3.03
2023-03-02T04:45:08.047Z,3.40
2023-03-02T04:48:09.564Z,3.40
2023-03-02T04:51:18.711Z,2.95
2023-03-02T04:54:25.300Z,2.47
2023-03-02T04:57:26.798Z,3.30
2023-03-02T05:00:28.859Z,3.30
2023-03-02T05:03:30.458Z,3.42
2023-03-02T05:06:32.320Z,4.35
2023-03-02T05:09:34.086Z,3.13
2023-03-02T05:12:54.338Z,2.70
2023-03-02T05:15:57.516Z,3.20
2023-03-02T05:19:00.195Z,3.92
2023-03-02T05:22:02.069Z,3.10
2023-03-02T05:25:04.570Z,2.92
2023-03-02T05:28:06.087Z,3.00
2023-03-02T05:31:08.058Z,2.75
2023-03-02T05:34:14.212Z,2.42
2023-03-02T05:37:15.733Z,2.72
2023-03-02T05:40:19.280Z,5.10
2023-03-02T05:43:21.770Z,2.90
2023-03-02T05:46:23.605Z,3.38
2023-03-02T05:49:25.099Z,3.90
2023-03-02T05:52:26.659Z,4.22
2023-03-02T05:55:28.825Z,3.83
2023-03-02T05:58:30.419Z,8.48
2023-03-02T06:01:32.176Z,2.88
2023-03-02T06:04:34.074Z,4.53
2023-03-02T06:07:35.621Z,3.05
2023-03-02T06:10:37.145Z,3.20
2023-03-02T06:13:39.854Z,4.20
2023-03-02T06:16:41.467Z,2.95
2023-03-02T06:19:43.120Z,3.15
2023-03-02T06:22:46.800Z,3.08
2023-03-02T06:25:48.859Z,4.35
2023-03-02T06:28:53.155Z,3.17
2023-03-02T06:31:55.329Z,3.15
2023-03-02T06:34:57.107Z,3.80
2023-03-02T06:37:58.811Z,4.82
2023-03-02T06:41:00.374Z,3.10
2023-03-02T06:44:02.104Z,3.95
2023-03-02T06:47:03.630Z,3.30
2023-03-02T06:50:06.205Z,3.28
2023-03-02T06:53:07.735Z,3.17
2023-03-02T06:56:10.063Z,4.53
2023-03-02T06:59:11.658Z,7.10
2023-03-02T07:02:13.288Z,3.38
2023-03-02T07:05:14.878Z,3.95
2023-03-02T07:08:16.388Z,4.30
2023-03-02T07:11:17.898Z,3.33
2023-03-02T07:14:19.381Z,5.18
2023-03-02T07:17:20.958Z,5.10
2023-03-02T07:20:22.549Z,3.55
2023-03-02T07:23:24.090Z,3.95
2023-03-02T07:26:25.567Z,4.15
2023-03-02T07:29:27.123Z,2.88
2023-03-02T07:32:28.735Z,3.63
2023-03-02T07:35:30.329Z,3.47
2023-03-02T07:38:31.906Z,3.33
2023-03-02T07:41:33.786Z,3.63
2023-03-02T07:44:35.527Z,3.63
2023-03-02T07:47:37.084Z,4.10
2023-03-02T07:50:38.651Z,6.07
2023-03-02T07:53:40.221Z,4.20
2023-03-02T07:56:41.763Z,3.22
2023-03-02T07:59:43.678Z,3.20
2023-03-02T08:02:45.233Z,4.20
2023-03-02T08:05:46.769Z,2.75
2023-03-02T08:08:48.629Z,3.97
2023-03-02T08:11:50.138Z,4.07
2023-03-02T08:14:51.830Z,3.30
2023-03-02T08:17:53.376Z,3.42
2023-03-02T08:20:55.218Z,4.45
2023-03-02T08:23:57.623Z,4.75
2023-03-02T08:27:03.118Z,3.78
2023-03-02T08:30:05.237Z,5.22
2023-03-02T08:33:07.305Z,4.30
2023-03-02T08:36:14.803Z,3.70
2023-03-02T08:39:16.267Z,3.40
2023-03-02T08:42:18.320Z,5.75
2023-03-02T08:45:20.795Z,3.70
2023-03-02T08:48:22.438Z,4.00
2023-03-02T08:51:25.440Z,4.88
2023-03-02T08:54:27.129Z,3.53
2023-03-02T08:57:28.622Z,3.80
2023-03-02T09:00:31.741Z,5.03
2023-03-02T09:03:33.258Z,5.47
2023-03-02T09:06:44.020Z,3.95
2023-03-02T09:09:45.481Z,4.97
2023-03-02T09:12:47.025Z,3.72
2023-03-02T09:15:48.458Z,4.15
2023-03-02T09:18:50.120Z,4.43
2023-03-02T09:21:51.579Z,4.32
2023-03-02T09:24:53.013Z,5.85
2023-03-02T09:27:54.458Z,5.18
2023-03-02T09:31:03.433Z,8.40
2023-03-02T09:34:05.618Z,8.45
2023-03-02T09:37:07.148Z,7.10
2023-03-02T09:40:25.188Z,7.28
2023-03-02T09:43:53.499Z,12.13
2023-03-02T09:47:34.929Z,8.45
2023-03-02T09:50:46.437Z,7.28
2023-03-02T09:54:10.994Z,9.35
2023-03-02T09:57:26.566Z,10.88
2023-03-02T10:00:36.126Z,9.75
2023-03-02T10:03:54.165Z,8.98
2023-03-02T10:07:01.388Z,13.63
2023-03-02T10:10:08.956Z,24.55
2023-03-02T10:13:40.605Z,33.42
2023-03-02T10:16:49.564Z,35.80
2023-03-02T10:19:56.614Z,37.55
2023-03-02T10:23:24.327Z,44.00
2023-03-02T10:26:35.395Z,42.15
2023-03-02T10:29:43.112Z,43.28
2023-03-02T10:32:52.407Z,48.30
2023-03-02T10:35:54.134Z,45.83
2023-03-02T10:38:57.628Z,47.42
2023-03-02T10:42:03.525Z,53.45
2023-03-02T10:45:23.876Z,46.70
2023-03-02T10:48:25.367Z,48.25
2023-03-02T10:51:32.007Z,44.88
2023-03-02T10:54:34.625Z,39.10
2023-03-02T10:57:38.702Z,38.72
2023-03-02T11:00:40.177Z,40.22
2023-03-02T11:03:41.818Z,36.35
2023-03-02T11:06:43.352Z,35.13
2023-03-02T11:10:00.521Z,31.02
2023-03-02T11:13:06.163Z,32.25
2023-03-02T11:16:16.800Z,32.77
2023-03-02T11:19:34.661Z,29.50
2023-03-02T11:22:53.350Z,29.13
2023-03-02T11:25:59.899Z,28.10
2023-03-02T11:32:34.529Z,27.00
2023-03-02T11:35:53.046Z,25.67
2023-03-02T11:38:55.207Z,25.25
2023-03-02T11:41:56.791Z,22.80
2023-03-02T11:45:03.729Z,24.95
2023-03-02T11:48:26.610Z,23.13
2023-03-02T11:55:24.528Z,27.67
2023-03-02T11:58:29.652Z,25.05
2023-03-02T12:01:33.628Z,24.00
2023-03-02T12:04:38.141Z,21.50
2023-03-02T12:07:39.673Z,21.58
2023-03-02T12:10:44.401Z,20.13
2023-03-02T12:13:57.765Z,20.67
2023-03-02T12:17:25.425Z,21.65
2023-03-02T12:20:29.854Z,20.13
2023-03-02T12:23:34.217Z,18.02
2023-03-02T12:26:37.586Z,16.60
2023-03-02T12:29:43.582Z,18.65
2023-03-02T12:32:58.166Z,18.30
2023-03-02T12:36:10.098Z,17.85
2023-03-02T12:39:42.847Z,16.63
2023-03-02T12:42:49.349Z,20.25
2023-03-02T12:49:33.393Z,14.80
2023-03-02T12:52:36.516Z,21.42
2023-03-02T12:55:38.580Z,17.05
2023-03-02T12:58:40.157Z,16.85
2023-03-02T13:01:41.644Z,16.70
2023-03-02T13:04:43.225Z,14.70
2023-03-02T13:07:56.358Z,19.45
2023-03-02T13:11:01.016Z,15.20
2023-03-02T13:14:17.448Z,15.60
2023-03-02T13:17:32.915Z,14.35
2023-03-02T13:20:34.592Z,16.52
2023-03-02T13:23:36.217Z,14.48
2023-03-02T13:26:39.778Z,15.32
2023-03-02T13:29:41.350Z,15.73
2023-03-02T13:32:45.682Z,12.88
2023-03-02T13:35:47.807Z,13.55
2023-03-02T13:38:52.639Z,14.77
2023-03-02T13:41:59.399Z,21.27
2023-03-02T13:45:31.251Z,15.07
2023-03-02T13:48:33.670Z,13.45
2023-03-02T13:51:38.190Z,13.75
2023-03-02T13:54:42.576Z,17.35
2023-03-02T13:57:45.811Z,14.05
2023-03-02T14:00:48.381Z,12.88
2023-03-02T14:03:50.002Z,15.25
2023-03-02T14:06:54.535Z,11.00
2023-03-02T14:09:57.602Z,15.63
2023-03-02T14:13:05.708Z,13.05
2023-03-02T14:16:10.788Z,13.55
2023-03-02T14:19:22.282Z,11.65
2023-03-02T14:22:26.844Z,9.40
2023-03-02T14:25:28.458Z,11.95
2023-03-02T14:28:33.006Z,12.02
2023-03-02T14:31:35.013Z,11.80
2023-03-02T14:34:37.394Z,11.60
2023-03-02T14:37:45.437Z,9.10
2023-03-02T14:40:47.203Z,12.00
2023-03-02T14:43:49.446Z,12.27
2023-03-02T14:46:51.310Z,12.18
2023-03-02T14:49:53.538Z,8.57
2023-03-02T14:52:57.729Z,13.40
2023-03-02T14:56:00.502Z,8.63
2023-03-02T14:59:02.058Z,11.00
2023-03-02T15:02:12.964Z,11.75
2023-03-02T15:05:20.676Z,7.50
2023-03-02T15:08:23.050Z,8.95
2023-03-02T15:11:26.467Z,9.85
2023-03-02T15:14:27.935Z,11.95
2023-03-02T15:17:29.432Z,11.45
2023-03-02T15:20:31.166Z,11.07
2023-03-02T15:23:32.922Z,10.45
2023-03-02T15:26:34.438Z,8.32
2023-03-02T15:29:35.948Z,8.75
2023-03-02T15:32:38.107Z,8.68
2023-03-02T15:35:40.805Z,8.98
2023-03-02T15:38:42.328Z,13.15
2023-03-02T15:41:43.870Z,8.95
2023-03-02T15:44:45.389Z,10.02
2023-03-02T15:47:47.105Z,8.57
2023-03-02T15:51:06.531Z,9.00
2023-03-02T15:54:10.717Z,6.95
2023-03-02T15:57:12.562Z,7.43
2023-03-02T16:00:14.447Z,7.63
2023-03-02T16:03:16.388Z,8.63
2023-03-02T16:06:18.080Z,10.55
2023-03-02T16:09:19.562Z,8.00
2023-03-02T16:12:23.305Z,8.02
2023-03-02T16:15:24.840Z,7.75
2023-03-02T16:18:26.308Z,8.10
2023-03-02T16:21:31.222Z,6.70
2023-03-02T16:24:32.687Z,7.82
2023-03-02T16:27:34.206Z,7.70
2023-03-02T16:30:36.513Z,6.75
2023-03-02T16:33:39.460Z,6.72
2023-03-02T16:36:42.112Z,7.57
2023-03-02T16:39:43.615Z,7.97
2023-03-02T16:42:45.155Z,8.82
2023-03-02T16:45:47.518Z,7.53
2023-03-02T16:48:49.687Z,7.07
2023-03-02T16:51:56.792Z,5.90
2023-03-02T16:54:59.251Z,9.30
2023-03-02T16:58:00.721Z,7.18
2023-03-02T17:01:02.283Z,6.97
2023-03-02T17:04:05.950Z,7.28
2023-03-02T17:07:08.256Z,7.78
2023-03-02T17:10:14.757Z,9.15
2023-03-02T17:16:19.183Z,12.38
2023-03-02T17:19:20.720Z,6.75
2023-03-02T17:22:22.228Z,7.15
2023-03-02T17:25:23.870Z,4.90
2023-03-02T17:28:25.394Z,7.57
2023-03-02T17:31:27.080Z,6.38
2023-03-02T17:34:31.173Z,6.07
2023-03-02T17:37:33.061Z,5.70
2023-03-02T17:40:34.628Z,7.07
2023-03-02T17:43:38.220Z,6.15
2023-03-02T17:46:43.024Z,7.13
2023-03-02T17:49:45.173Z,12.82
2023-03-02T17:52:47.029Z,8.50
2023-03-02T17:55:48.526Z,7.45
2023-03-02T17:58:55.725Z,7.95
2023-03-02T18:01:57.272Z,6.82
2023-03-02T18:04:59.222Z,6.35
2023-03-02T18:08:00.752Z,7.38
2023-03-02T18:11:04.254Z,6.47
2023-03-02T18:14:05.798Z,9.98
2023-03-02T18:17:09.221Z,5.10
2023-03-02T18:20:11.971Z,8.75
2023-03-02T18:23:13.746Z,7.32
2023-03-02T18:26:16.100Z,5.38
2023-03-02T18:29:17.637Z,5.75
2023-03-02T18:32:19.182Z,5.55
2023-03-02T18:35:21.279Z,4.97
2023-03-02T18:38:30.599Z,6.03
2023-03-02T18:41:32.556Z,4.78
2023-03-02T18:44:34.714Z,5.00
2023-03-02T18:47:36.590Z,5.07
2023-03-02T18:50:39.541Z,5.70
2023-03-02T18:53:42.928Z,6.10
2023-03-02T18:56:44.589Z,6.05
2023-03-02T18:59:46.099Z,4.97
2023-03-02T19:02:47.966Z,4.75
2023-03-02T19:05:49.520Z,6.35
2023-03-02T19:08:51.063Z,4.47
2023-03-02T19:11:52.536Z,4.47
2023-03-02T19:14:55.587Z,6.43
2023-03-02T19:17:57.222Z,4.25
2023-03-02T19:20:59.112Z,5.05
2023-03-02T19:24:01.752Z,4.88
2023-03-02T19:27:03.538Z,4.70
2023-03-02T19:30:07.192Z,4.95
2023-03-02T19:33:09.788Z,3.97
2023-03-02T19:36:12.584Z,3.90
2023-03-02T19:39:14.426Z,4.10
2023-03-02T19:42:16.113Z,4.78
2023-03-02T19:45:31.211Z,5.10
2023-03-02T19:48:33.949Z,5.30
2023-03-02T19:51:35.587Z,4.53
2023-03-02T19:54:37.072Z,5.80
2023-03-02T19:57:39.950Z,5.35
2023-03-02T20:00:41.421Z,5.43
2023-03-02T20:03:44.092Z,4.85
2023-03-02T20:06:45.776Z,6.40
2023-03-02T20:09:47.330Z,5.78
2023-03-02T20:12:48.920Z,23.95
2023-03-02T20:15:51.138Z,40.67
2023-03-02T20:18:52.988Z,52.33
2023-03-02T20:21:54.582Z,48.92
2023-03-02T20:24:56.318Z,89.45
2023-03-02T20:27:58.465Z,127.13
2023-03-02T20:31:03.163Z,118.97
2023-03-02T20:34:08.970Z,123.43
2023-03-02T20:37:13.467Z,125.65
2023-03-02T20:40:17.395Z,114.15
2023-03-02T20:43:19.377Z,107.60
2023-03-02T20:46:33.848Z,106.25
2023-03-02T20:49:37.362Z,93.88
2023-03-02T20:52:38.885Z,91.53
2023-03-02T20:55:40.695Z,87.10
2023-03-02T20:58:43.334Z,79.32
2023-03-02T21:01:44.886Z,77.22
2023-03-02T21:04:47.097Z,78.13
2023-03-02T21:07:49.397Z,68.82
2023-03-02T21:10:51.155Z,68.82
2023-03-02T21:13:52.869Z,64.03
2023-03-02T21:16:54.509Z,61.05
2023-03-02T21:19:56.426Z,57.17
2023-03-02T21:22:59.443Z,59.55
2023-03-02T21:26:01.048Z,52.08
2023-03-02T21:29:03.748Z,54.90
2023-03-02T21:32:07.633Z,51.83
2023-03-02T21:35:09.992Z,47.90
2023-03-02T21:38:11.654Z,48.70
2023-03-02T21:41:13.215Z,48.40
2023-03-02T21:44:14.993Z,41.72
2023-03-02T21:47:16.478Z,41.63
2023-03-02T21:50:26.362Z,43.83
2023-03-02T21:53:27.903Z,42.25
2023-03-02T21:56:29.387Z,41.58
2023-03-02T21:59:30.884Z,39.33
2023-03-02T22:02:33.154Z,41.03
2023-03-02T22:05:35.356Z,37.45
2023-03-02T22:08:39.108Z,39.58
2023-03-02T22:11:40.736Z,34.45
2023-03-02T22:14:42.348Z,32.53
2023-03-02T22:17:43.914Z,34.53
2023-03-02T22:20:48.162Z,32.03
2023-03-02T22:23:49.965Z,32.70
2023-03-02T22:27:16.109Z,32.25
2023-03-02T22:30:23.617Z,31.67
2023-03-02T22:33:28.152Z,30.15
2023-03-02T22:36:29.617Z,31.45
2023-03-02T22:39:33.175Z,28.35
2023-03-02T22:42:34.649Z,30.50
2023-03-02T22:45:38.196Z,26.88
2023-03-02T22:48:41.131Z,27.85
2023-03-02T22:51:42.702Z,28.20
2023-03-02T22:54:45.545Z,24.77
2023-03-02T22:57:47.103Z,26.27
2023-03-02T23:00:48.897Z,25.60
2023-03-02T23:03:58.282Z,26.33
2023-03-02T23:07:02.593Z,24.98
2023-03-02T23:10:04.461Z,23.98
2023-03-02T23:13:05.977Z,24.08
2023-03-02T23:16:14.537Z,25.98
2023-03-02T23:19:16.071Z,21.65
2023-03-02T23:22:18.290Z,21.88
2023-03-02T23:25:19.878Z,22.85
2023-03-02T23:28:21.362Z,21.65
2023-03-02T23:31:22.905Z,22.25
2023-03-02T23:34:24.567Z,20.65
2023-03-02T23:37:26.088Z,22.33
2023-03-02T23:40:28.918Z,21.73
2023-03-02T23:43:30.421Z,20.85
2023-03-02T23:46:32.306Z,19.27
2023-03-02T23:49:33.805Z,20.25
2023-03-02T23:52:35.270Z,19.55
2023-03-02T23:55:39.460Z,18.67
2023-03-02T23:58:41.006Z,17.77
